KRDG/RDG METAR and TAF weather

Enter ICAO airport designator
Station Type Date Time Source
KRDG METAR 2024/06/15 23:54 UTC NOAA

KRDG 152354Z 34005KT 10SM CLR 26/09 A3005 RMK AO2 SLP178 T02560089 10283 20250 53001 $


Station Type Date Time Source
KRDG Decoded METAR 2024/06/15 23:54 UTC NOAA

READING REGIONAL AIRPORT, PA, United States (KRDG) 40-22N 075-58W 109M
Jun 15, 2024 - 07:54 PM EDT / 2024.06.15 2354 UTC
Wind: from the NNW (340 degrees) at 6 MPH (5 KT):0
Visibility: 10 mile(s):0
Sky conditions: clear
Temperature: 78.1 F (25.6 C)
Dew Point: 48.0 F (8.9 C)
Relative Humidity: 34%
Pressure (altimeter): 30.05 in. Hg (1017 hPa)
Pressure tendency: 0.00 inches (0.1 hPa) higher than three hours ago
ob: KRDG 152354Z 34005KT 10SM CLR 26/09 A3005 RMK AO2 SLP178 T02560089 10283 20250 53001
cycle: 0

Station Type Date Time Source
KRDG TAF 2024/06/15 18:22 UTC NOAA